createdAt,value
2018-12-21T00:01:44.626Z,98.07
2018-12-21T00:04:13.736Z,97.88
2018-12-21T00:06:42.324Z,98.02
2018-12-21T00:09:10.589Z,98.21
2018-12-21T00:11:39.001Z,97.98
2018-12-21T00:14:07.367Z,98.27
2018-12-21T00:16:35.471Z,98.49
2018-12-21T00:19:03.689Z,98.52
2018-12-21T00:21:31.834Z,98.65
2018-12-21T00:23:59.967Z,98.51
2018-12-21T00:26:28.113Z,98.18
2018-12-21T00:28:56.277Z,98.29
2018-12-21T00:31:29.886Z,98.39
2018-12-21T00:34:03.485Z,98.18
2018-12-21T00:36:36.978Z,98.63
2018-12-21T00:39:12.327Z,98.13
2018-12-21T00:41:39.661Z,98.88
2018-12-21T00:44:14.575Z,98.32
2018-12-21T00:46:49.574Z,98.55
2018-12-21T00:49:18.434Z,98.36
2018-12-21T00:51:46.571Z,98.37
2018-12-21T00:54:15.182Z,98.27
2018-12-21T00:56:43.313Z,98.65
2018-12-21T00:59:11.406Z,98.53
2018-12-21T01:01:39.662Z,98.28
2018-12-21T01:04:07.753Z,98.19
2018-12-21T01:06:35.987Z,97.96
2018-12-21T01:09:04.730Z,98.19
2018-12-21T01:11:32.855Z,97.91
2018-12-21T01:14:01.030Z,98.20
2018-12-21T01:16:29.271Z,97.38
2018-12-21T01:18:57.428Z,97.35
2018-12-21T01:21:25.606Z,97.77
2018-12-21T01:23:53.701Z,97.48
2018-12-21T01:26:21.789Z,97.53
2018-12-21T01:28:49.954Z,97.30
2018-12-21T01:31:18.066Z,96.77
2018-12-21T01:33:46.169Z,96.60
2018-12-21T01:36:14.386Z,96.78
2018-12-21T01:38:42.609Z,96.95
2018-12-21T01:41:10.823Z,96.54
2018-12-21T01:43:39.038Z,96.80
2018-12-21T01:46:07.227Z,96.30
2018-12-21T01:48:35.460Z,96.13
2018-12-21T01:51:03.880Z,96.22
2018-12-21T01:53:35.042Z,96.44
2018-12-21T01:56:03.148Z,96.08
2018-12-21T01:58:31.276Z,96.08
2018-12-21T02:00:59.367Z,95.91
2018-12-21T02:03:27.582Z,95.42
2018-12-21T02:05:55.708Z,95.60
2018-12-21T02:08:23.855Z,95.82
2018-12-21T02:10:52.101Z,95.56
2018-12-21T02:13:20.192Z,95.25
2018-12-21T02:15:48.355Z,94.94
2018-12-21T02:18:16.447Z,95.28
2018-12-21T02:20:44.613Z,94.82
2018-12-21T02:23:12.762Z,94.74
2018-12-21T02:25:40.968Z,94.35
2018-12-21T02:28:09.057Z,94.08
2018-12-21T02:30:37.214Z,94.68
2018-12-21T02:33:05.393Z,94.64
2018-12-21T02:35:33.590Z,94.68
2018-12-21T02:38:01.806Z,94.86
2018-12-21T02:40:29.921Z,94.24
2018-12-21T02:42:58.072Z,94.80
2018-12-21T02:45:26.239Z,94.89
2018-12-21T02:47:54.366Z,94.79
2018-12-21T02:50:22.533Z,94.94
2018-12-21T02:52:50.741Z,93.75
2018-12-21T02:55:18.975Z,93.51
2018-12-21T02:57:47.102Z,93.77
2018-12-21T03:00:15.176Z,93.93
2018-12-21T03:02:43.382Z,94.11
2018-12-21T03:05:11.540Z,94.27
2018-12-21T03:07:39.740Z,94.13
2018-12-21T03:10:08.242Z,94.00
2018-12-21T03:12:36.433Z,93.70
2018-12-21T03:15:05.620Z,93.79
2018-12-21T03:17:33.759Z,93.31
2018-12-21T03:20:01.910Z,93.75
2018-12-21T03:22:30.142Z,93.41
2018-12-21T03:24:58.250Z,93.44
2018-12-21T03:27:26.464Z,93.14
2018-12-21T03:29:54.603Z,93.46
2018-12-21T03:32:22.729Z,93.61
2018-12-21T03:34:50.945Z,94.38
2018-12-21T03:37:19.186Z,94.34
2018-12-21T03:39:47.327Z,93.81
2018-12-21T03:42:15.502Z,93.94
2018-12-21T03:44:43.763Z,94.45
2018-12-21T03:47:11.976Z,94.03
2018-12-21T03:49:40.117Z,94.28
2018-12-21T03:52:08.380Z,94.57
2018-12-21T03:54:36.566Z,94.09
2018-12-21T03:57:04.725Z,94.18
2018-12-21T03:59:32.868Z,94.28
2018-12-21T04:02:01.070Z,94.21
2018-12-21T04:04:29.262Z,93.64
2018-12-21T04:06:57.388Z,93.80
2018-12-21T04:09:25.595Z,93.32
2018-12-21T04:11:53.803Z,93.52
2018-12-21T04:14:21.925Z,93.37
2018-12-21T04:16:50.029Z,93.65
2018-12-21T04:19:18.176Z,93.42
2018-12-21T04:21:46.394Z,93.64
2018-12-21T04:24:14.566Z,93.32
2018-12-21T04:26:42.642Z,92.74
2018-12-21T04:29:10.757Z,92.58
2018-12-21T04:31:38.915Z,93.10
2018-12-21T04:34:07.058Z,92.69
2018-12-21T04:36:35.181Z,93.02
2018-12-21T04:39:04.574Z,94.34
2018-12-21T04:41:32.704Z,95.15
2018-12-21T04:44:00.830Z,95.17
2018-12-21T04:46:28.970Z,95.03
2018-12-21T04:48:57.049Z,95.91
2018-12-21T04:51:25.195Z,95.95
2018-12-21T04:53:53.351Z,95.78
2018-12-21T04:56:21.574Z,95.31
2018-12-21T04:58:49.728Z,94.99
2018-12-21T05:01:17.861Z,94.74
2018-12-21T05:03:46.109Z,94.94
2018-12-21T05:06:14.310Z,94.78
2018-12-21T05:08:42.467Z,94.64
2018-12-21T05:11:10.596Z,94.53
2018-12-21T05:13:38.865Z,94.66
2018-12-21T05:16:07.063Z,95.60
2018-12-21T05:18:35.286Z,96.13
2018-12-21T05:21:03.429Z,96.42
2018-12-21T05:23:31.563Z,96.73
2018-12-21T05:25:59.803Z,97.29
2018-12-21T05:28:27.966Z,98.09
2018-12-21T05:30:56.150Z,98.39
2018-12-21T05:33:24.337Z,99.45
2018-12-21T05:35:52.505Z,99.98
2018-12-21T05:38:20.721Z,100.00
2018-12-21T05:40:48.940Z,100.00
2018-12-21T05:43:17.009Z,100.00
2018-12-21T05:45:45.142Z,100.00
2018-12-21T05:48:13.291Z,100.00
2018-12-21T05:50:41.464Z,100.00
2018-12-21T05:53:09.557Z,100.00
2018-12-21T05:55:37.694Z,100.00
2018-12-21T05:58:12.502Z,100.00
2018-12-21T06:00:40.627Z,100.00
2018-12-21T06:03:08.774Z,100.00
2018-12-21T06:05:36.891Z,100.00
2018-12-21T06:08:05.098Z,100.00
2018-12-21T06:10:33.244Z,100.00
2018-12-21T06:13:01.376Z,100.00
2018-12-21T06:15:29.521Z,100.00
2018-12-21T06:17:57.674Z,100.00
2018-12-21T06:20:25.818Z,100.00
2018-12-21T06:22:54.034Z,100.00
2018-12-21T06:25:22.168Z,100.00
2018-12-21T06:27:50.277Z,100.00
2018-12-21T06:30:18.393Z,100.00
2018-12-21T06:32:46.505Z,100.00
2018-12-21T06:35:14.687Z,100.00
2018-12-21T06:37:42.850Z,100.00
2018-12-21T06:40:10.960Z,100.00
2018-12-21T06:42:39.086Z,100.00
2018-12-21T06:45:07.520Z,100.00
2018-12-21T06:47:35.600Z,100.00
2018-12-21T06:50:03.973Z,100.00
2018-12-21T06:52:32.121Z,100.00
2018-12-21T06:55:00.263Z,100.00
2018-12-21T06:57:28.372Z,100.00
2018-12-21T06:59:56.505Z,100.00
2018-12-21T07:02:24.625Z,100.00
2018-12-21T07:04:52.869Z,100.00
2018-12-21T07:07:21.737Z,100.00
2018-12-21T07:09:50.022Z,100.00
2018-12-21T07:12:18.267Z,100.00
2018-12-21T07:14:46.635Z,100.00
2018-12-21T07:17:14.927Z,100.00
2018-12-21T07:19:43.615Z,100.00
2018-12-21T07:22:11.842Z,100.00
2018-12-21T07:24:40.084Z,100.00
2018-12-21T07:27:08.343Z,100.00
2018-12-21T07:29:36.857Z,100.00
2018-12-21T07:32:05.150Z,100.00
2018-12-21T07:34:33.479Z,100.00
2018-12-21T07:37:01.722Z,100.00
2018-12-21T07:39:32.252Z,100.00
2018-12-21T07:42:00.239Z,100.00
2018-12-21T07:44:28.479Z,100.00
2018-12-21T07:46:56.776Z,100.00
2018-12-21T07:49:25.049Z,100.00
2018-12-21T07:51:53.291Z,100.00
2018-12-21T07:54:21.695Z,100.00
2018-12-21T07:56:49.906Z,100.00
2018-12-21T07:59:18.107Z,100.00
2018-12-21T08:01:46.451Z,100.00
2018-12-21T08:04:14.651Z,100.00
2018-12-21T08:06:42.944Z,100.00
2018-12-21T08:09:11.242Z,100.00
2018-12-21T08:11:42.676Z,100.00
2018-12-21T08:14:10.956Z,100.00
2018-12-21T08:16:39.231Z,100.00
2018-12-21T08:19:07.547Z,100.00
2018-12-21T08:21:35.891Z,100.00
2018-12-21T08:24:04.136Z,100.00
2018-12-21T08:26:32.382Z,100.00
2018-12-21T08:29:00.623Z,100.00
2018-12-21T08:31:28.853Z,100.00
2018-12-21T08:33:57.049Z,100.00
2018-12-21T08:36:25.271Z,100.00
2018-12-21T08:38:53.561Z,100.00
2018-12-21T08:41:21.855Z,100.00
2018-12-21T08:43:50.055Z,100.00
2018-12-21T08:46:18.349Z,100.00
2018-12-21T08:48:46.577Z,100.00
2018-12-21T08:51:14.794Z,100.00
2018-12-21T08:53:43.011Z,100.00
2018-12-21T08:56:11.383Z,100.00
2018-12-21T08:58:39.898Z,100.00
2018-12-21T09:01:08.132Z,100.00
2018-12-21T09:03:36.427Z,100.00
2018-12-21T09:06:04.685Z,100.00
2018-12-21T09:08:32.937Z,100.00
2018-12-21T09:11:01.173Z,100.00
2018-12-21T09:13:29.532Z,100.00
2018-12-21T09:15:57.911Z,100.00
2018-12-21T09:18:26.224Z,100.00
2018-12-21T09:20:54.534Z,100.00
2018-12-21T09:23:23.757Z,100.00
2018-12-21T09:25:52.127Z,100.00
2018-12-21T09:28:20.329Z,100.00
2018-12-21T09:30:48.522Z,100.00
2018-12-21T09:33:16.868Z,100.00
2018-12-21T09:35:45.255Z,100.00
2018-12-21T09:38:13.525Z,100.00
2018-12-21T09:40:41.799Z,100.00
2018-12-21T09:56:48.851Z,100.00
2018-12-21T10:02:35.711Z,100.00
2018-12-21T10:04:58.881Z,100.00
2018-12-21T10:07:32.040Z,100.00
2018-12-21T10:10:21.409Z,100.00
2018-12-21T10:12:57.935Z,100.00
2018-12-21T10:35:47.678Z,100.00
2018-12-21T10:38:29.794Z,100.00
2018-12-21T12:53:12.298Z,100.00
2018-12-21T12:55:40.547Z,100.00
2018-12-21T12:58:08.662Z,100.00
2018-12-21T13:00:36.873Z,100.00
2018-12-21T13:03:05.250Z,100.00
2018-12-21T13:05:33.605Z,100.00
2018-12-21T13:08:01.906Z,100.00
2018-12-21T13:10:30.008Z,100.00
2018-12-21T13:12:58.862Z,100.00
2018-12-21T13:15:27.277Z,100.00
2018-12-21T13:17:55.455Z,100.00
2018-12-21T13:20:23.550Z,100.00
2018-12-21T13:22:51.725Z,100.00
2018-12-21T13:25:19.817Z,100.00
2018-12-21T13:27:47.908Z,100.00
2018-12-21T13:30:16.011Z,100.00
2018-12-21T13:32:44.238Z,100.00
2018-12-21T13:35:12.378Z,100.00
2018-12-21T13:37:40.509Z,100.00
2018-12-21T13:40:11.593Z,100.00
2018-12-21T13:42:39.932Z,100.00
2018-12-21T13:45:10.230Z,100.00
2018-12-21T13:47:38.404Z,100.00
2018-12-21T13:50:10.149Z,100.00
2018-12-21T13:52:54.315Z,100.00
2018-12-21T13:55:44.090Z,100.00
2018-12-21T13:58:16.566Z,100.00
2018-12-21T14:00:47.450Z,100.00
2018-12-21T14:03:18.649Z,100.00
2018-12-21T14:05:56.207Z,100.00
2018-12-21T14:57:44.927Z,100.00
2018-12-21T15:03:04.423Z,100.00
2018-12-21T15:05:33.490Z,100.00
2018-12-21T15:08:04.060Z,100.00
2018-12-21T15:10:48.620Z,100.00
2018-12-21T15:13:16.693Z,100.00
2018-12-21T15:15:45.182Z,100.00
2018-12-21T15:18:13.375Z,100.00
2018-12-21T15:20:41.462Z,100.00
2018-12-21T15:23:09.673Z,100.00
2018-12-21T15:25:45.910Z,100.00
2018-12-21T15:28:08.016Z,100.00
2018-12-21T15:30:36.223Z,100.00
2018-12-21T15:33:04.521Z,100.00
2018-12-21T15:38:32.612Z,100.00
2018-12-21T15:41:13.039Z,100.00
2018-12-21T15:43:50.175Z,100.00
2018-12-21T15:46:41.444Z,100.00
2018-12-21T15:49:45.880Z,100.00
2018-12-21T15:55:29.658Z,100.00
2018-12-21T17:16:12.783Z,99.87
2018-12-21T17:52:12.719Z,100.00
2018-12-21T17:57:37.057Z,100.00
2018-12-21T19:03:19.610Z,99.65
2018-12-21T19:06:05.590Z,99.15
2018-12-21T19:08:40.455Z,99.50
2018-12-21T19:11:15.499Z,98.61
2018-12-21T19:13:49.251Z,98.87
2018-12-21T19:16:28.638Z,98.61
2018-12-21T19:20:31.098Z,99.22
2018-12-21T19:23:04.156Z,98.48
2018-12-21T19:25:42.675Z,98.72
2018-12-21T19:28:20.607Z,99.13
2018-12-21T19:30:55.284Z,99.02
2018-12-21T19:33:27.159Z,98.91
2018-12-21T19:36:03.207Z,99.24
2018-12-21T19:38:33.926Z,98.88
2018-12-21T19:41:11.878Z,99.37
2018-12-21T19:43:43.601Z,99.50
2018-12-21T19:46:20.828Z,99.28
2018-12-21T20:02:34.130Z,97.60
2018-12-21T20:08:01.424Z,97.08
2018-12-21T20:10:37.608Z,97.58
2018-12-21T20:13:10.441Z,96.64
2018-12-21T20:15:45.355Z,96.84
2018-12-21T20:21:27.155Z,96.21
2018-12-21T20:24:01.120Z,96.59
2018-12-21T20:26:32.319Z,96.12
2018-12-21T20:29:02.152Z,96.99
2018-12-21T20:31:40.119Z,96.40
2018-12-21T20:34:14.535Z,96.61
2018-12-21T20:36:46.758Z,95.46
2018-12-21T20:39:23.302Z,94.96
2018-12-21T20:41:58.060Z,95.44
2018-12-21T20:44:33.473Z,95.29
2018-12-21T20:47:10.535Z,95.39
2018-12-21T20:49:40.020Z,95.14
2018-12-21T20:52:26.748Z,94.79
2018-12-21T20:54:59.081Z,94.71
2018-12-21T21:02:56.878Z,94.08
2018-12-21T21:08:19.155Z,94.87
2018-12-21T21:10:52.994Z,94.67
2018-12-21T21:13:28.877Z,94.18
2018-12-21T21:16:07.464Z,94.25
2018-12-21T21:18:45.158Z,94.26
2018-12-21T21:21:14.021Z,93.92
2018-12-21T21:23:46.175Z,93.71
2018-12-21T21:26:21.558Z,93.60
2018-12-21T21:28:50.292Z,93.76
2018-12-21T21:31:20.128Z,93.76
2018-12-21T21:33:53.645Z,93.74
2018-12-21T21:36:28.897Z,92.81
2018-12-21T21:39:10.269Z,92.63
2018-12-21T21:41:52.082Z,93.06
2018-12-21T21:44:31.852Z,92.74
2018-12-21T21:47:12.530Z,93.54
2018-12-21T21:50:49.013Z,92.13
2018-12-21T21:53:26.106Z,91.81
2018-12-21T21:56:04.986Z,92.45
2018-12-21T21:58:48.201Z,91.17
2018-12-21T22:01:27.123Z,90.75
2018-12-21T22:04:07.639Z,91.02
2018-12-21T22:09:45.901Z,91.79
2018-12-21T22:12:21.187Z,92.20
2018-12-21T22:14:57.759Z,91.65
2018-12-21T22:17:36.819Z,91.48
2018-12-21T22:20:16.525Z,90.39
2018-12-21T22:23:03.473Z,90.07
2018-12-21T22:25:53.241Z,89.80
2018-12-21T22:28:22.175Z,89.89
2018-12-21T22:31:11.717Z,90.42
2018-12-21T22:33:53.929Z,90.20
2018-12-21T22:36:26.888Z,90.44
2018-12-21T22:38:56.265Z,90.27
2018-12-21T22:41:26.950Z,90.84
2018-12-21T22:43:58.455Z,90.29
2018-12-21T22:46:34.362Z,89.90
2018-12-21T22:49:18.706Z,90.60
2018-12-21T22:51:52.835Z,90.25
2018-12-21T22:54:25.546Z,90.71
2018-12-21T22:56:59.242Z,88.35
2018-12-21T22:59:36.589Z,89.88
2018-12-21T23:02:13.401Z,90.41
2018-12-21T23:05:01.156Z,90.45
2018-12-21T23:07:37.231Z,90.36
2018-12-21T23:10:10.386Z,91.22
2018-12-21T23:12:45.905Z,91.59
2018-12-21T23:15:19.430Z,91.72
2018-12-21T23:17:53.415Z,91.04
2018-12-21T23:20:40.574Z,91.12
2018-12-21T23:23:20.918Z,90.77
2018-12-21T23:25:52.138Z,90.94
2018-12-21T23:28:29.471Z,91.11
2018-12-21T23:31:00.401Z,90.96
2018-12-21T23:33:53.368Z,89.99
2018-12-21T23:36:28.102Z,89.74
2018-12-21T23:39:14.134Z,89.74
2018-12-21T23:42:03.410Z,89.28
2018-12-21T23:48:01.014Z,88.89
2018-12-21T23:50:29.189Z,89.16
2018-12-21T23:52:57.341Z,89.49
2018-12-21T23:55:26.333Z,89.00
2018-12-21T23:57:55.902Z,89.03
